Time;durP1;ratioP1;P1;durP2;ratioP2;P2;SDS_P1;SDS_P2;PMS_P1;PMS_P2;Temp;Humidity;BMP_temperature;BMP_pressure;BME280_temperature;BME280_humidity;BME280_pressure;Samples;Min_cycle;Max_cycle;Signal;HPM_P1;HPM_P2
2021/08/11 00:00:19;;;;;;;35.40;17.65;;;15.30;99.90;;;;;;4985900;28;20031;-58
2021/08/11 00:02:44;;;;;;;29.20;17.58;;;15.20;99.90;;;;;;4989780;28;20037;-56
2021/08/11 00:05:10;;;;;;;28.08;16.33;;;15.20;99.90;;;;;;4990685;28;20092;-57
2021/08/11 00:07:36;;;;;;;29.98;17.38;;;15.20;99.90;;;;;;4990163;28;20454;-53
2021/08/11 00:10:03;;;;;;;30.77;17.95;;;15.10;99.90;;;;;;4990221;28;20113;-58
2021/08/11 00:12:29;;;;;;;24.77;16.77;;;15.10;99.90;;;;;;4989805;28;20062;-57
2021/08/11 00:14:54;;;;;;;25.35;18.20;;;15.00;99.90;;;;;;4991371;28;20061;-58
2021/08/11 00:17:20;;;;;;;32.60;19.45;;;15.00;99.90;;;;;;4989461;28;20168;-56
2021/08/11 00:19:46;;;;;;;35.92;20.98;;;15.00;99.90;;;;;;4990796;28;20030;-57
2021/08/11 00:22:11;;;;;;;37.83;21.38;;;15.00;99.90;;;;;;4990422;28;20041;-55
2021/08/11 00:24:37;;;;;;;40.00;21.00;;;15.10;99.90;;;;;;4990647;28;20029;-56
2021/08/11 00:27:03;;;;;;;38.33;20.17;;;15.10;99.90;;;;;;4990687;28;20652;-58
2021/08/11 00:29:28;;;;;;;133.02;24.98;;;15.10;99.90;;;;;;4990459;28;20035;-58
2021/08/11 00:31:54;;;;;;;99.10;21.83;;;15.10;99.90;;;;;;4985872;28;20084;-56
2021/08/11 00:34:19;;;;;;;368.80;27.38;;;15.10;99.90;;;;;;4990425;28;20026;-57
2021/08/11 00:36:45;;;;;;;315.17;24.27;;;15.10;99.90;;;;;;4990268;28;20042;-58
2021/08/11 00:39:10;;;;;;;280.63;19.67;;;15.10;99.90;;;;;;4989996;28;20030;-57
2021/08/11 00:41:44;;;;;;;347.83;24.60;;;15.20;99.90;;;;;;4991121;28;20438;-58
2021/08/11 00:44:10;;;;;;;238.23;18.20;;;15.20;99.90;;;;;;4986321;28;20049;-55
2021/08/11 00:46:39;;;;;;;343.98;17.50;;;15.20;99.90;;;;;;4989840;28;20033;-56
2021/08/11 00:49:05;;;;;;;448.80;19.65;;;15.20;99.90;;;;;;4987552;28;20046;-54
2021/08/11 00:51:30;;;;;;;331.50;15.93;;;15.20;99.90;;;;;;4989795;28;20376;-57
2021/08/11 00:53:56;;;;;;;357.95;20.27;;;15.20;99.90;;;;;;4990013;28;20100;-57
2021/08/11 00:56:23;;;;;;;220.88;16.17;;;15.10;99.90;;;;;;4989696;28;20499;-57
2021/08/11 00:58:50;;;;;;;264.77;18.15;;;15.10;99.90;;;;;;4981953;28;20496;-59
2021/08/11 01:01:16;;;;;;;315.83;18.42;;;15.10;99.90;;;;;;4986815;28;20027;-58
2021/08/11 01:29:37;;;;;;;122.97;12.18;;;15.10;99.90;;;;;;4964331;28;20397;-58
2021/08/11 01:32:35;;;;;;;87.97;11.43;;;14.90;99.90;;;;;;4963831;28;20042;-59
2021/08/11 01:35:02;;;;;;;82.72;10.52;;;14.90;99.90;;;;;;4961633;28;20062;-56
2021/08/11 01:37:31;;;;;;;46.47;9.18;;;14.80;99.90;;;;;;4966417;28;20030;-59
2021/08/11 01:39:59;;;;;;;61.70;9.52;;;14.80;99.90;;;;;;4959168;28;20131;-59
2021/08/11 01:42:33;;;;;;;119.80;12.32;;;14.80;99.90;;;;;;4924753;29;20035;-57
2021/08/11 01:45:18;;;;;;;72.88;12.15;;;14.80;99.90;;;;;;4909571;29;20474;-59
2021/08/11 01:47:53;;;;;;;128.68;14.88;;;14.70;99.90;;;;;;4924794;29;20035;-57
2021/08/11 01:50:21;;;;;;;106.03;13.63;;;14.70;99.90;;;;;;4899488;29;20041;-60
2021/08/11 01:52:48;;;;;;;125.63;12.68;;;14.70;99.90;;;;;;4875414;29;20021;-59
2021/08/11 01:55:14;;;;;;;91.80;11.88;;;14.60;99.90;;;;;;4874956;29;20432;-59
2021/08/11 01:57:44;;;;;;;104.55;11.35;;;14.60;99.90;;;;;;4880350;29;20040;-58
2021/08/11 02:00:11;;;;;;;162.70;12.90;;;14.60;99.90;;;;;;4873968;29;20040;-60
2021/08/11 02:02:39;;;;;;;103.63;12.00;;;14.60;99.90;;;;;;4880463;29;20036;-57
2021/08/11 02:05:07;;;;;;;171.02;13.82;;;14.50;99.90;;;;;;4873710;29;20081;-57
2021/08/11 02:07:33;;;;;;;74.05;10.02;;;14.50;99.90;;;;;;4886766;29;20044;-55
2021/08/11 02:10:00;;;;;;;59.22;10.50;;;14.50;99.90;;;;;;4873715;29;20017;-58
2021/08/11 02:12:26;;;;;;;55.55;9.57;;;14.50;99.90;;;;;;4886764;29;20651;-56
2021/08/11 02:14:52;;;;;;;60.55;9.43;;;14.40;99.90;;;;;;4873980;29;20036;-59
2021/08/11 02:17:19;;;;;;;89.82;10.05;;;14.30;99.90;;;;;;4873636;29;20037;-55
2021/08/11 02:19:45;;;;;;;79.72;11.27;;;14.30;99.90;;;;;;4861501;29;20412;-60
2021/08/11 02:22:11;;;;;;;57.60;9.63;;;14.30;99.90;;;;;;4872891;29;20113;-60
2021/08/11 02:24:37;;;;;;;119.57;9.32;;;14.20;99.90;;;;;;4869852;29;20037;-58
2021/08/11 02:27:19;;;;;;;135.52;10.43;;;14.20;99.90;;;;;;4875961;29;20058;-58
2021/08/11 02:29:50;;;;;;;108.45;10.60;;;14.30;99.90;;;;;;4905153;29;20037;-59
2021/08/11 02:32:21;;;;;;;147.63;11.57;;;14.20;99.90;;;;;;4876348;29;20049;-56
2021/08/11 02:35:04;;;;;;;175.48;11.85;;;14.30;99.90;;;;;;4878805;29;20024;-60
2021/08/11 02:37:48;;;;;;;154.05;12.10;;;14.30;99.90;;;;;;4880558;29;20524;-58
2021/08/11 02:40:13;;;;;;;;;;;14.30;99.90;;;;;;4881723;29;20542;-60
2021/08/11 02:42:44;;;;;;;228.60;13.57;;;14.30;99.90;;;;;;4874210;28;19919;-59
2021/08/11 02:45:15;;;;;;;103.25;12.93;;;14.30;99.90;;;;;;4880704;29;20040;-57
2021/08/11 02:47:42;;;;;;;105.68;11.75;;;14.30;99.90;;;;;;4876208;29;20037;-60
2021/08/11 02:50:09;;;;;;;206.90;14.95;;;14.40;99.90;;;;;;4880994;29;20029;-57
2021/08/11 02:52:36;;;;;;;108.15;10.80;;;14.40;99.90;;;;;;4887666;29;20755;-60
2021/08/11 02:55:02;;;;;;;159.65;10.82;;;14.40;99.90;;;;;;4878789;29;20025;-60
2021/08/11 02:57:29;;;;;;;267.05;15.00;;;14.40;99.90;;;;;;4879535;29;20108;-58
2021/08/11 02:59:55;;;;;;;148.00;11.60;;;14.40;99.90;;;;;;4878290;29;20057;-60
2021/08/11 03:02:22;;;;;;;224.50;13.48;;;14.40;99.90;;;;;;4876554;29;20074;-61
2021/08/11 03:04:48;;;;;;;63.65;9.98;;;14.30;99.90;;;;;;4878811;29;20115;-61
2021/08/11 03:07:14;;;;;;;215.20;11.77;;;14.30;99.90;;;;;;4877683;29;20076;-59
2021/08/11 03:09:40;;;;;;;311.80;15.68;;;14.30;99.90;;;;;;4878048;29;20452;-61
2021/08/11 03:12:08;;;;;;;278.48;13.13;;;14.30;99.90;;;;;;4888622;29;20104;-60
2021/08/11 03:14:35;;;;;;;254.80;13.10;;;14.30;99.90;;;;;;4879636;29;20040;-60
2021/08/11 03:17:00;;;;;;;210.65;12.48;;;14.30;99.90;;;;;;4883546;29;20056;-59
2021/08/11 03:19:26;;;;;;;89.40;9.15;;;14.30;99.90;;;;;;4877802;29;20056;-60
2021/08/11 03:21:51;;;;;;;98.05;11.43;;;14.30;99.90;;;;;;4880945;29;20055;-59
2021/08/11 03:24:18;;;;;;;193.68;12.82;;;14.30;99.90;;;;;;4877855;29;20092;-59
2021/08/11 03:26:44;;;;;;;101.20;7.60;;;14.30;99.90;;;;;;4878764;29;20508;-59
2021/08/11 03:29:09;;;;;;;212.85;11.50;;;14.20;99.90;;;;;;4878049;29;20057;-60
2021/08/11 03:31:35;;;;;;;356.95;15.07;;;14.20;99.90;;;;;;4883169;29;20366;-60
2021/08/11 03:34:00;;;;;;;259.25;15.20;;;14.20;99.90;;;;;;4878244;29;20032;-60
2021/08/11 03:36:27;;;;;;;243.10;14.10;;;14.20;99.90;;;;;;4889227;29;20551;-58
2021/08/11 03:38:53;;;;;;;252.13;11.32;;;14.20;99.90;;;;;;4883575;29;20036;-62
2021/08/11 03:41:19;;;;;;;382.83;15.50;;;14.20;99.90;;;;;;4877727;29;20048;-60
2021/08/11 03:43:45;;;;;;;279.25;13.68;;;14.20;99.90;;;;;;4877870;29;20068;-59
2021/08/11 03:46:10;;;;;;;154.73;12.45;;;14.20;99.90;;;;;;4885617;29;20037;-58
2021/08/11 03:48:36;;;;;;;159.68;10.70;;;14.20;99.90;;;;;;4892249;29;20033;-60
2021/08/11 03:51:02;;;;;;;244.13;13.20;;;14.20;99.90;;;;;;4877860;29;20017;-60
2021/08/11 03:53:27;;;;;;;210.82;12.02;;;14.20;99.90;;;;;;4878990;29;20029;-61
2021/08/11 03:55:53;;;;;;;240.20;14.18;;;14.20;99.90;;;;;;4875668;29;20115;-57
2021/08/11 03:58:19;;;;;;;116.95;8.75;;;14.10;99.90;;;;;;4878098;29;20033;-60
2021/08/11 04:00:44;;;;;;;112.38;8.40;;;14.10;99.90;;;;;;4874659;29;20060;-60
2021/08/11 04:03:10;;;;;;;224.75;11.27;;;14.10;99.90;;;;;;4884498;29;20033;-60
2021/08/11 04:05:36;;;;;;;363.10;14.52;;;14.10;99.90;;;;;;4882391;29;20135;-58
2021/08/11 04:08:01;;;;;;;142.88;8.98;;;14.00;99.90;;;;;;4877756;29;20033;-59
2021/08/11 04:10:27;;;;;;;135.48;9.15;;;14.00;99.90;;;;;;4878201;29;20400;-61
2021/08/11 04:12:52;;;;;;;141.73;9.13;;;14.00;99.90;;;;;;4878096;29;20029;-62
2021/08/11 04:15:18;;;;;;;197.27;10.93;;;14.00;99.90;;;;;;4875821;29;20037;-61
2021/08/11 04:17:44;;;;;;;275.48;12.23;;;14.00;99.90;;;;;;4876409;29;20120;-61
2021/08/11 04:20:10;;;;;;;135.27;8.68;;;14.00;99.90;;;;;;4876117;29;20596;-59
2021/08/11 04:22:35;;;;;;;66.35;7.50;;;14.00;99.90;;;;;;4875469;29;20445;-59
2021/08/11 04:25:01;;;;;;;249.55;15.00;;;14.00;99.90;;;;;;4876871;29;20093;-61
2021/08/11 04:27:27;;;;;;;308.80;12.05;;;14.00;99.90;;;;;;4876336;29;20037;-60
2021/08/11 04:29:52;;;;;;;293.15;12.45;;;14.00;99.90;;;;;;4877067;29;20048;-60
2021/08/11 04:32:18;;;;;;;230.82;11.77;;;14.00;99.90;;;;;;4891146;29;20033;-58
2021/08/11 04:34:46;;;;;;;218.73;10.52;;;14.00;99.90;;;;;;4877108;29;20104;-60
2021/08/11 04:37:11;;;;;;;125.30;8.02;;;14.00;99.90;;;;;;4881598;29;20035;-59
2021/08/11 04:39:37;;;;;;;166.95;10.55;;;14.10;99.90;;;;;;4877961;29;20025;-57
2021/08/11 04:42:02;;;;;;;213.15;10.70;;;14.10;99.90;;;;;;4883450;29;20088;-60
2021/08/11 04:44:28;;;;;;;263.27;10.70;;;14.10;99.90;;;;;;4878831;29;20037;-61
2021/08/11 04:46:55;;;;;;;116.32;8.10;;;14.20;99.90;;;;;;4878632;29;20191;-60
2021/08/11 04:49:21;;;;;;;163.73;6.95;;;14.20;99.90;;;;;;4876276;29;20072;-59
2021/08/11 04:51:46;;;;;;;96.43;6.28;;;14.30;99.90;;;;;;4877038;29;20458;-62
2021/08/11 04:54:12;;;;;;;132.57;11.02;;;14.40;99.90;;;;;;4876376;29;20029;-56
2021/08/11 04:56:37;;;;;;;130.93;7.32;;;14.40;99.90;;;;;;4877260;29;20400;-61
2021/08/11 04:59:03;;;;;;;109.10;6.28;;;14.50;99.90;;;;;;4885818;29;20115;-61
2021/08/11 05:01:29;;;;;;;160.98;7.03;;;14.50;99.90;;;;;;4874761;29;20064;-60
2021/08/11 05:03:54;;;;;;;177.48;8.52;;;14.40;99.90;;;;;;4875756;29;20492;-57
2021/08/11 05:06:20;;;;;;;220.57;8.00;;;14.30;99.90;;;;;;4876589;29;20044;-60
2021/08/11 05:08:45;;;;;;;285.50;10.88;;;14.30;99.90;;;;;;4876042;29;20029;-60
2021/08/11 05:11:11;;;;;;;348.55;11.27;;;14.30;99.90;;;;;;4876831;29;20036;-60
2021/08/11 05:13:36;;;;;;;359.17;13.75;;;14.20;99.90;;;;;;4880305;29;20065;-60
2021/08/11 05:16:02;;;;;;;102.20;6.53;;;14.30;99.90;;;;;;4886380;29;20036;-61
2021/08/11 05:18:28;;;;;;;124.22;7.97;;;14.40;99.90;;;;;;4886447;29;20041;-56
2021/08/11 05:20:53;;;;;;;211.13;10.38;;;14.50;99.90;;;;;;4876477;29;20039;-61
2021/08/11 05:23:19;;;;;;;128.23;7.63;;;14.70;99.90;;;;;;4876123;29;20460;-60
2021/08/11 05:25:45;;;;;;;243.55;10.27;;;14.90;99.90;;;;;;4876588;29;20544;-61
2021/08/11 05:28:11;;;;;;;273.38;10.30;;;14.90;99.90;;;;;;4884271;29;20033;-59
2021/08/11 05:30:38;;;;;;;298.15;9.55;;;15.10;99.90;;;;;;4877566;29;20712;-61
2021/08/11 05:33:04;;;;;;;190.75;9.68;;;15.30;99.90;;;;;;4876027;29;20048;-60
2021/08/11 05:35:29;;;;;;;211.63;10.43;;;15.60;99.90;;;;;;4880457;29;20429;-61
2021/08/11 05:37:56;;;;;;;209.40;9.35;;;15.80;99.90;;;;;;4883372;29;20086;-60
2021/08/11 05:40:21;;;;;;;107.90;6.63;;;15.80;99.90;;;;;;4877628;29;20512;-58
2021/08/11 05:42:47;;;;;;;154.70;7.70;;;15.90;99.90;;;;;;4885302;29;20076;-61
2021/08/11 05:45:12;;;;;;;103.18;7.38;;;16.00;99.90;;;;;;4860043;29;20657;-62
2021/08/11 05:47:39;;;;;;;90.90;6.88;;;16.10;99.90;;;;;;4873709;29;20060;-56
2021/08/11 05:50:06;;;;;;;61.28;6.20;;;16.30;99.90;;;;;;4876083;29;20089;-60
2021/08/11 05:52:31;;;;;;;117.05;8.02;;;16.30;99.90;;;;;;4876169;29;20037;-61
2021/08/11 05:54:57;;;;;;;83.05;5.60;;;16.70;99.90;;;;;;4879100;29;20025;-59
2021/08/11 05:57:22;;;;;;;133.43;6.50;;;16.90;99.90;;;;;;4879255;29;20033;-55
2021/08/11 05:59:49;;;;;;;90.97;5.45;;;17.20;99.90;;;;;;4879002;29;20484;-61
2021/08/11 06:02:15;;;;;;;51.28;4.95;;;17.50;99.90;;;;;;4879274;29;20058;-59
2021/08/11 06:04:40;;;;;;;15.02;4.30;;;17.90;99.90;;;;;;4878050;29;20400;-61
2021/08/11 06:07:06;;;;;;;8.77;3.60;;;18.20;99.90;;;;;;4878825;29;20141;-61
2021/08/11 06:09:32;;;;;;;78.78;5.47;;;18.60;99.90;;;;;;4884818;29;20040;-60
2021/08/11 06:11:57;;;;;;;11.32;3.10;;;19.20;99.90;;;;;;4892301;29;20036;-61
2021/08/11 06:14:23;;;;;;;58.38;4.68;;;19.80;99.90;;;;;;4877504;29;20047;-60
2021/08/11 06:16:48;;;;;;;10.25;3.67;;;19.90;99.90;;;;;;4880363;29;20040;-62
2021/08/11 06:19:14;;;;;;;3.63;2.90;;;19.60;99.90;;;;;;4878272;29;20025;-60
2021/08/11 06:21:40;;;;;;;3.78;3.08;;;19.50;99.90;;;;;;4879884;29;20047;-59
2021/08/11 06:24:05;;;;;;;5.10;3.25;;;19.50;99.90;;;;;;4888931;29;20029;-60
2021/08/11 06:26:31;;;;;;;8.43;4.13;;;19.50;99.90;;;;;;4895338;29;20042;-59
2021/08/11 06:28:57;;;;;;;5.85;2.97;;;19.70;99.90;;;;;;4897029;29;20039;-60
2021/08/11 06:31:24;;;;;;;5.10;3.58;;;19.60;99.90;;;;;;4880275;29;20063;-60
2021/08/11 06:33:53;;;;;;;3.88;2.97;;;19.80;99.90;;;;;;4880324;29;20022;-61
2021/08/11 06:36:20;;;;;;;8.40;3.42;;;20.20;99.90;;;;;;4890598;29;20032;-61
2021/08/11 06:38:46;;;;;;;3.35;3.05;;;19.90;99.90;;;;;;4886085;29;20479;-61
2021/08/11 06:41:16;;;;;;;3.50;3.20;;;19.90;99.90;;;;;;4898158;29;20054;-60
2021/08/11 06:43:42;;;;;;;3.88;3.28;;;19.80;99.90;;;;;;4878953;29;20056;-60
2021/08/11 06:46:08;;;;;;;3.72;2.90;;;19.80;99.90;;;;;;4879558;29;20032;-62
2021/08/11 06:48:36;;;;;;;3.67;3.08;;;19.90;99.90;;;;;;4879506;29;20032;-60
2021/08/11 06:51:02;;;;;;;4.03;2.85;;;20.10;99.90;;;;;;4884986;29;20045;-60
2021/08/11 06:53:28;;;;;;;3.60;3.15;;;20.40;99.90;;;;;;4884711;29;20063;-62
2021/08/11 06:55:53;;;;;;;4.28;3.50;;;20.60;99.90;;;;;;4879857;29;20069;-62
2021/08/11 06:58:19;;;;;;;4.40;3.72;;;20.50;99.90;;;;;;4879472;29;20075;-60
2021/08/11 07:00:45;;;;;;;6.00;3.40;;;20.50;99.90;;;;;;4856346;29;20076;-61
2021/08/11 07:03:10;;;;;;;5.97;3.40;;;20.40;99.90;;;;;;4877657;29;20060;-60
2021/08/11 07:05:36;;;;;;;4.63;3.53;;;20.30;99.90;;;;;;4883468;29;20478;-62
2021/08/11 07:08:02;;;;;;;4.57;3.22;;;19.90;99.90;;;;;;4890338;29;20088;-61
2021/08/11 07:10:28;;;;;;;10.73;4.10;;;20.10;99.90;;;;;;4878585;29;20037;-62
2021/08/11 07:12:53;;;;;;;6.18;3.65;;;20.10;99.90;;;;;;4878634;29;20033;-61
2021/08/11 07:15:19;;;;;;;3.88;3.20;;;20.60;99.90;;;;;;4880876;29;20539;-60
2021/08/11 07:17:53;;;;;;;5.32;2.97;;;22.10;99.90;;;;;;4883156;29;20044;-61
2021/08/11 07:20:19;;;;;;;5.97;3.28;;;22.90;99.90;;;;;;4887070;29;20032;-59
2021/08/11 07:22:45;;;;;;;3.67;3.17;;;23.30;99.90;;;;;;4885755;29;20127;-60
2021/08/11 07:25:11;;;;;;;3.30;2.95;;;23.90;99.90;;;;;;4957695;23;20143;-60
2021/08/11 07:27:37;;;;;;;3.10;2.47;;;25.10;99.90;;;;;;4957032;28;20033;-60
2021/08/11 07:30:04;;;;;;;3.95;3.08;;;24.80;99.90;;;;;;4959136;28;20027;-60
2021/08/11 07:32:30;;;;;;;4.60;2.47;;;24.00;99.90;;;;;;4952196;28;20039;-60
2021/08/11 07:34:56;;;;;;;5.18;3.25;;;23.30;99.90;;;;;;4953329;28;20406;-60
2021/08/11 07:37:21;;;;;;;3.30;2.60;;;23.30;99.90;;;;;;4964163;28;20027;-60
2021/08/11 07:39:47;;;;;;;3.85;2.78;;;23.50;99.90;;;;;;4966203;28;20038;-60
2021/08/11 07:42:13;;;;;;;3.05;2.63;;;23.60;99.90;;;;;;4954513;28;20035;-60
2021/08/11 07:44:38;;;;;;;4.53;3.03;;;23.80;99.90;;;;;;4957508;28;20114;-57
2021/08/11 07:47:04;;;;;;;4.68;3.20;;;23.70;99.90;;;;;;4947714;28;20031;-59
2021/08/11 07:49:31;;;;;;;3.33;2.50;;;23.30;99.90;;;;;;4949920;28;20031;-59
2021/08/11 07:51:57;;;;;;;3.70;2.78;;;23.00;99.90;;;;;;4960240;28;20481;-60
2021/08/11 07:54:22;;;;;;;3.78;2.83;;;23.40;99.90;;;;;;4955701;28;20083;-59
2021/08/11 07:56:48;;;;;;;4.18;3.15;;;23.10;99.90;;;;;;4962698;28;20081;-59
2021/08/11 07:59:14;;;;;;;5.57;3.08;;;23.30;99.90;;;;;;4965607;28;20023;-59
2021/08/11 08:01:40;;;;;;;4.25;2.88;;;23.20;99.90;;;;;;4931864;28;20418;-59
2021/08/11 08:04:06;;;;;;;5.00;2.83;;;23.10;99.90;;;;;;4944836;28;20439;-60
2021/08/11 08:06:31;;;;;;;4.53;3.58;;;23.00;99.90;;;;;;4946059;28;20054;-61
2021/08/11 08:08:57;;;;;;;4.18;3.50;;;22.70;99.90;;;;;;4949807;28;20023;-59
2021/08/11 08:11:22;;;;;;;6.22;3.63;;;22.70;99.90;;;;;;4898308;28;20047;-60
2021/08/11 08:13:48;;;;;;;8.07;3.38;;;22.90;99.90;;;;;;4940910;28;20035;-59
2021/08/11 08:16:15;;;;;;;4.68;3.00;;;23.10;99.90;;;;;;4950305;28;20031;-59
2021/08/11 08:18:41;;;;;;;4.85;2.85;;;22.80;99.90;;;;;;4949788;28;20031;-59
2021/08/11 08:21:07;;;;;;;4.20;3.15;;;22.60;99.90;;;;;;4945234;29;20114;-58
2021/08/11 08:23:32;;;;;;;3.28;2.83;;;22.50;99.90;;;;;;4945659;28;20461;-59
2021/08/11 08:25:58;;;;;;;5.15;2.78;;;23.20;99.90;;;;;;4950549;28;20046;-57
2021/08/11 08:28:24;;;;;;;3.70;2.65;;;23.60;99.90;;;;;;4956647;28;20039;-59
2021/08/11 08:30:49;;;;;;;5.13;2.75;;;24.30;99.90;;;;;;4957738;28;20054;-59
2021/08/11 08:33:16;;;;;;;4.50;3.03;;;24.40;99.90;;;;;;4958710;28;20522;-59
2021/08/11 08:35:42;;;;;;;3.92;2.95;;;24.80;99.90;;;;;;4952546;28;20031;-60
2021/08/11 08:38:07;;;;;;;4.97;2.97;;;24.60;99.90;;;;;;4952600;28;20046;-59
2021/08/11 08:40:36;;;;;;;6.38;3.00;;;24.90;99.90;;;;;;4953064;28;20046;-60
2021/08/11 08:43:03;;;;;;;5.82;2.70;;;25.50;99.90;;;;;;4952546;28;20054;-60
2021/08/11 08:45:29;;;;;;;4.63;3.00;;;26.00;99.90;;;;;;4951921;28;20038;-59
2021/08/11 08:47:56;;;;;;;6.25;2.72;;;26.40;99.40;;;;;;4951826;28;20035;-60
2021/08/11 08:50:23;;;;;;;8.20;2.42;;;26.90;97.70;;;;;;4952387;28;20027;-60
2021/08/11 08:52:50;;;;;;;3.33;2.55;;;27.00;98.80;;;;;;4952110;28;20027;-60
2021/08/11 08:55:17;;;;;;;3.08;2.55;;;26.80;98.00;;;;;;4952321;28;20086;-60
2021/08/11 08:57:43;;;;;;;3.45;2.47;;;26.60;98.00;;;;;;4952533;28;20027;-60
2021/08/11 09:00:10;;;;;;;6.15;2.30;;;26.50;98.60;;;;;;4936624;28;20042;-60
2021/08/11 09:02:40;;;;;;;2.70;2.35;;;27.10;98.20;;;;;;4952976;28;20031;-59
2021/08/11 09:05:10;;;;;;;3.17;2.47;;;27.20;97.20;;;;;;4952977;28;20538;-59
2021/08/11 09:07:43;;;;;;;4.18;2.80;;;27.40;96.90;;;;;;4952682;28;20038;-59
2021/08/11 09:10:23;;;;;;;3.13;2.03;;;26.80;98.30;;;;;;4952689;28;20630;-60
2021/08/11 09:12:51;;;;;;;2.97;2.60;;;27.30;98.60;;;;;;4952554;28;20031;-60
2021/08/11 09:15:40;;;;;;;2.97;2.10;;;28.00;95.50;;;;;;4951411;28;20441;-60
2021/08/11 09:18:14;;;;;;;3.13;2.70;;;27.20;96.80;;;;;;4941042;29;20027;-60
2021/08/11 09:20:42;;;;;;;3.97;2.45;;;27.00;98.10;;;;;;4951832;28;20515;-60
2021/08/11 09:23:08;;;;;;;2.17;1.90;;;28.20;96.30;;;;;;4952070;28;20028;-60
2021/08/11 09:25:35;;;;;;;4.15;2.75;;;28.90;94.70;;;;;;4951888;28;20035;-60
2021/08/11 09:28:01;;;;;;;4.38;2.50;;;28.50;94.20;;;;;;4950790;28;20024;-61
2021/08/11 09:30:32;;;;;;;2.70;2.03;;;27.80;95.00;;;;;;4964485;28;20041;-60
2021/08/11 09:33:05;;;;;;;4.45;2.63;;;27.90;96.00;;;;;;4961696;28;20023;-60
2021/08/11 09:35:38;;;;;;;4.93;2.10;;;28.20;97.40;;;;;;4969419;28;21282;-60
2021/08/11 09:38:11;;;;;;;3.85;2.28;;;28.60;96.50;;;;;;4955139;28;20023;-59
2021/08/11 09:40:38;;;;;;;2.63;2.30;;;29.20;94.90;;;;;;4956450;28;20386;-60
2021/08/11 09:43:06;;;;;;;6.30;2.63;;;28.90;93.40;;;;;;4955323;28;20031;-60
2021/08/11 09:45:49;;;;;;;2.45;2.10;;;28.50;95.00;;;;;;4955942;28;20031;-60
2021/08/11 09:48:20;;;;;;;3.47;2.08;;;29.10;95.10;;;;;;4951379;29;20031;-60
2021/08/11 09:50:48;;;;;;;4.80;2.13;;;28.70;94.20;;;;;;4954345;28;20027;-59
2021/08/11 09:53:32;;;;;;;5.65;2.35;;;29.00;93.40;;;;;;4955371;28;20023;-60
2021/08/11 09:56:05;;;;;;;8.30;2.55;;;28.20;94.40;;;;;;4955638;28;20023;-60
2021/08/11 09:58:34;;;;;;;3.55;2.33;;;28.20;94.20;;;;;;4955025;28;20122;-60
2021/08/11 10:01:00;;;;;;;3.38;2.17;;;28.00;95.00;;;;;;4941419;28;20200;-58
2021/08/11 10:03:25;;;;;;;2.10;1.85;;;27.90;95.10;;;;;;4954864;28;20034;-60
2021/08/11 10:05:53;;;;;;;4.22;2.45;;;27.40;97.10;;;;;;4955459;29;20031;-59
2021/08/11 10:08:48;;;;;;;3.75;2.75;;;27.70;94.70;;;;;;4954627;28;20028;-59
2021/08/11 10:11:13;;;;;;;4.28;2.58;;;27.10;95.80;;;;;;4962147;28;20046;-60
2021/08/11 10:13:41;;;;;;;2.17;1.98;;;27.00;95.80;;;;;;4954626;28;20015;-59
2021/08/11 10:16:07;;;;;;;3.83;3.35;;;27.00;96.20;;;;;;4953955;28;20031;-59
2021/08/11 10:18:38;;;;;;;5.03;2.78;;;26.80;96.50;;;;;;4953574;28;20037;-59
2021/08/11 10:21:04;;;;;;;2.72;2.20;;;27.20;96.10;;;;;;4948394;29;20030;-58
2021/08/11 10:23:31;;;;;;;3.35;2.40;;;26.70;95.70;;;;;;4955492;28;20027;-59
2021/08/11 10:25:56;;;;;;;4.20;2.30;;;26.60;95.80;;;;;;4954976;28;20057;-59
2021/08/11 10:28:25;;;;;;;2.80;2.08;;;26.70;96.00;;;;;;4941054;29;20484;-59
2021/08/11 10:30:51;;;;;;;6.00;2.60;;;26.80;97.60;;;;;;4955360;28;20025;-60
2021/08/11 10:33:19;;;;;;;6.93;2.92;;;26.90;97.30;;;;;;4952359;28;20514;-59
2021/08/11 10:35:46;;;;;;;3.40;2.42;;;26.50;95.60;;;;;;4955414;28;20410;-59
2021/08/11 10:38:13;;;;;;;4.07;2.58;;;26.40;95.70;;;;;;4962259;28;20094;-59
2021/08/11 10:40:41;;;;;;;7.35;2.85;;;26.80;95.10;;;;;;4967508;28;20026;-59
2021/08/11 10:43:08;;;;;;;2.95;2.22;;;26.80;95.10;;;;;;4967390;28;20082;-59
2021/08/11 10:45:34;;;;;;;3.22;2.58;;;27.20;94.50;;;;;;4953337;28;20046;-59
2021/08/11 10:48:00;;;;;;;4.05;2.75;;;27.60;94.30;;;;;;4953897;28;20039;-60
2021/08/11 10:50:42;;;;;;;3.00;2.55;;;27.50;95.30;;;;;;4953924;28;20453;-59
2021/08/11 10:53:08;;;;;;;3.67;2.40;;;27.30;93.80;;;;;;4954197;28;20426;-60
2021/08/11 10:55:43;;;;;;;3.85;2.90;;;27.40;95.20;;;;;;4954414;28;20038;-60
2021/08/11 10:58:09;;;;;;;5.68;2.70;;;27.00;93.90;;;;;;4952767;28;20035;-58
2021/08/11 11:00:41;;;;;;;5.20;2.90;;;26.80;95.80;;;;;;4939028;28;20093;-59
2021/08/11 11:03:07;;;;;;;2.60;2.40;;;27.20;93.70;;;;;;4953816;28;20414;-60
2021/08/11 11:05:33;;;;;;;6.68;2.90;;;27.20;93.50;;;;;;4951221;28;20107;-59
2021/08/11 11:08:12;;;;;;;10.57;2.97;;;27.10;95.50;;;;;;4946623;29;20114;-59
2021/08/11 11:10:42;;;;;;;4.43;2.72;;;27.10;95.90;;;;;;4954874;28;20027;-58
2021/08/11 11:13:26;;;;;;;5.65;2.38;;;27.00;95.60;;;;;;4968152;28;20027;-60
2021/08/11 11:15:53;;;;;;;;;;;26.60;95.30;;;;;;4954624;28;20023;-60
2021/08/11 11:18:20;;;;;;;3.97;2.60;;;26.60;95.90;;;;;;4952862;28;19930;-58
2021/08/11 11:20:47;;;;;;;5.07;2.70;;;26.90;95.70;;;;;;4954210;28;20039;-58
2021/08/11 11:23:32;;;;;;;3.45;2.60;;;26.70;94.90;;;;;;4953992;28;20060;-59
2021/08/11 11:26:05;;;;;;;3.85;2.85;;;26.60;95.80;;;;;;4954076;28;20114;-59
2021/08/11 11:28:59;;;;;;;4.90;3.47;;;26.30;94.30;;;;;;4954204;28;20540;-58
2021/08/11 11:31:37;;;;;;;4.95;2.85;;;25.90;95.90;;;;;;4948715;28;20370;-58
2021/08/11 11:34:29;;;;;;;5.68;2.92;;;26.30;93.50;;;;;;4951088;28;20022;-58
2021/08/11 11:36:54;;;;;;;7.68;3.58;;;26.20;94.70;;;;;;4945565;28;20043;-57
2021/08/11 11:39:27;;;;;;;4.32;3.10;;;26.10;96.10;;;;;;4953223;28;20096;-58
2021/08/11 11:42:08;;;;;;;5.30;3.47;;;25.90;95.00;;;;;;4951700;28;20082;-58
2021/08/11 11:44:43;;;;;;;5.53;2.92;;;26.00;95.50;;;;;;4953100;28;20019;-60
2021/08/11 11:47:09;;;;;;;4.50;3.22;;;25.80;97.20;;;;;;4950222;28;20684;-60
2021/08/11 11:49:36;;;;;;;6.72;3.55;;;25.60;97.20;;;;;;4949538;28;20114;-59
2021/08/11 11:52:02;;;;;;;4.03;2.92;;;25.50;97.10;;;;;;4952740;28;20027;-59
2021/08/11 11:54:29;;;;;;;5.75;3.22;;;25.50;95.60;;;;;;4953160;28;20038;-59
2021/08/11 11:56:55;;;;;;;4.22;3.10;;;25.70;96.70;;;;;;4952861;28;20090;-59
2021/08/11 11:59:22;;;;;;;5.28;3.15;;;26.00;94.50;;;;;;4952303;28;20085;-60
2021/08/11 12:01:49;;;;;;;8.30;3.17;;;26.50;96.00;;;;;;4953303;28;20031;-58
2021/08/11 12:04:23;;;;;;;4.22;2.60;;;26.50;95.70;;;;;;4947680;28;20035;-60
2021/08/11 12:06:48;;;;;;;5.70;3.28;;;26.50;94.80;;;;;;4954074;28;20035;-58
2021/08/11 12:09:14;;;;;;;4.70;3.40;;;26.60;93.00;;;;;;4951811;28;20031;-59
2021/08/11 12:11:40;;;;;;;5.18;2.88;;;26.50;93.50;;;;;;4954295;28;20110;-59
2021/08/11 12:14:06;;;;;;;5.85;3.13;;;26.60;94.30;;;;;;4953616;28;20110;-60
2021/08/11 12:16:41;;;;;;;6.22;3.08;;;26.80;94.90;;;;;;4952582;28;20574;-60
2021/08/11 12:19:18;;;;;;;6.53;3.25;;;26.40;93.80;;;;;;4946700;29;20019;-59
2021/08/11 12:21:45;;;;;;;4.88;3.40;;;26.20;94.40;;;;;;4953252;28;20027;-59
2021/08/11 12:24:11;;;;;;;6.85;2.85;;;26.00;94.50;;;;;;4954101;28;20106;-58
2021/08/11 12:26:38;;;;;;;5.90;3.42;;;26.00;95.80;;;;;;4955870;28;20162;-58
2021/08/11 12:29:14;;;;;;;3.85;2.92;;;25.80;95.90;;;;;;4961183;28;20102;-58
2021/08/11 12:31:41;;;;;;;4.85;3.47;;;25.70;94.60;;;;;;4957894;28;20494;-57
2021/08/11 12:34:10;;;;;;;5.03;3.42;;;25.30;95.30;;;;;;4953945;28;20024;-58
2021/08/11 12:36:38;;;;;;;6.85;3.28;;;25.50;95.60;;;;;;4947842;28;20028;-59
2021/08/11 12:39:18;;;;;;;5.20;3.10;;;25.50;98.00;;;;;;4950752;28;20023;-59
2021/08/11 12:42:03;;;;;;;6.95;3.53;;;25.60;94.30;;;;;;4912173;28;20359;-59
2021/08/11 12:44:30;;;;;;;4.32;3.05;;;25.40;95.70;;;;;;4951522;29;20023;-58
2021/08/11 12:47:04;;;;;;;4.88;3.40;;;25.60;95.00;;;;;;4948127;28;20035;-59
2021/08/11 12:49:29;;;;;;;9.48;3.17;;;25.50;95.70;;;;;;4950212;29;20019;-60
2021/08/11 12:52:16;;;;;;;7.20;3.78;;;25.80;94.70;;;;;;4946125;28;20046;-59
2021/08/11 12:54:56;;;;;;;4.93;3.53;;;25.80;94.70;;;;;;4943174;29;20098;-59
2021/08/11 12:57:22;;;;;;;4.43;3.10;;;25.80;96.00;;;;;;4945254;29;20543;-59
2021/08/11 12:59:52;;;;;;;6.82;3.40;;;26.00;94.80;;;;;;4949471;28;20422;-59
2021/08/11 13:02:23;;;;;;;5.47;3.65;;;26.30;93.50;;;;;;4951073;28;20034;-59
2021/08/11 13:04:50;;;;;;;5.80;3.20;;;26.60;92.90;;;;;;4946943;28;20023;-60